sensor_id;sensor_type;location;lat;lon;timestamp;pressure;altitude;pressure_sealevel;temperature;humidity
36798;BME280;22748;8.426;99.512;2023-03-11T00:01:22;100839.03;;;27.56;57.15
36798;BME280;22748;8.426;99.512;2023-03-11T00:03:53;100834.69;;;27.55;57.35
36798;BME280;22748;8.426;99.512;2023-03-11T00:06:25;100841.84;;;27.48;57.33
36798;BME280;22748;8.426;99.512;2023-03-11T00:08:55;100837.25;;;27.35;57.43
36798;BME280;22748;8.426;99.512;2023-03-11T00:11:28;100845.41;;;27.27;57.79
36798;BME280;22748;8.426;99.512;2023-03-11T00:13:58;100846.31;;;27.19;57.90
36798;BME280;22748;8.426;99.512;2023-03-11T00:16:30;100846.09;;;27.14;57.73
36798;BME280;22748;8.426;99.512;2023-03-11T00:19:00;100846.28;;;27.13;58.39
36798;BME280;22748;8.426;99.512;2023-03-11T00:21:31;100848.13;;;27.12;58.14
36798;BME280;22748;8.426;99.512;2023-03-11T00:24:03;100850.56;;;27.07;58.59
36798;BME280;22748;8.426;99.512;2023-03-11T00:26:35;100851.44;;;27.14;58.52
36798;BME280;22748;8.426;99.512;2023-03-11T00:29:05;100864.91;;;27.21;58.56
36798;BME280;22748;8.426;99.512;2023-03-11T00:31:39;100873.44;;;27.24;58.63
36798;BME280;22748;8.426;99.512;2023-03-11T00:34:09;100872.66;;;27.31;58.50
36798;BME280;22748;8.426;99.512;2023-03-11T00:36:40;100875.34;;;27.31;58.44
36798;BME280;22748;8.426;99.512;2023-03-11T00:39:11;100883.00;;;27.34;58.58
36798;BME280;22748;8.426;99.512;2023-03-11T00:41:41;100888.38;;;27.34;58.82
36798;BME280;22748;8.426;99.512;2023-03-11T00:44:12;100889.19;;;27.34;59.14
36798;BME280;22748;8.426;99.512;2023-03-11T00:46:46;100889.66;;;27.38;59.08
36798;BME280;22748;8.426;99.512;2023-03-11T00:49:19;100890.72;;;27.43;59.10
36798;BME280;22748;8.426;99.512;2023-03-11T00:51:50;100897.56;;;27.46;59.00
36798;BME280;22748;8.426;99.512;2023-03-11T00:54:27;100897.16;;;27.49;59.10
36798;BME280;22748;8.426;99.512;2023-03-11T00:56:58;100897.16;;;27.49;59.19
36798;BME280;22748;8.426;99.512;2023-03-11T00:59:28;100904.19;;;27.50;58.77
36798;BME280;22748;8.426;99.512;2023-03-11T01:02:00;100904.44;;;27.55;59.12
36798;BME280;22748;8.426;99.512;2023-03-11T01:04:36;100916.47;;;27.59;59.36
36798;BME280;22748;8.426;99.512;2023-03-11T01:07:07;100910.69;;;27.62;59.34
36798;BME280;22748;8.426;99.512;2023-03-11T01:09:38;100917.53;;;27.65;59.50
36798;BME280;22748;8.426;99.512;2023-03-11T01:12:10;100921.47;;;27.69;59.44
36798;BME280;22748;8.426;99.512;2023-03-11T01:14:40;100927.09;;;27.74;59.96
36798;BME280;22748;8.426;99.512;2023-03-11T01:17:12;100935.41;;;27.79;59.71
36798;BME280;22748;8.426;99.512;2023-03-11T01:19:43;100941.84;;;27.85;60.08
36798;BME280;22748;8.426;99.512;2023-03-11T01:22:13;100943.78;;;27.91;60.12
36798;BME280;22748;8.426;99.512;2023-03-11T01:24:43;100952.09;;;27.96;59.75
36798;BME280;22748;8.426;99.512;2023-03-11T01:27:13;100949.81;;;28.00;60.34
36798;BME280;22748;8.426;99.512;2023-03-11T01:29:43;100953.78;;;28.04;60.33
36798;BME280;22748;8.426;99.512;2023-03-11T01:32:16;100955.88;;;28.08;59.88
36798;BME280;22748;8.426;99.512;2023-03-11T01:34:52;100954.66;;;28.11;60.64
36798;BME280;22748;8.426;99.512;2023-03-11T01:37:23;100952.41;;;28.15;60.35
36798;BME280;22748;8.426;99.512;2023-03-11T01:39:55;100961.72;;;28.19;60.08
36798;BME280;22748;8.426;99.512;2023-03-11T01:42:25;100959.69;;;28.21;59.69
36798;BME280;22748;8.426;99.512;2023-03-11T01:44:55;100958.91;;;28.27;60.39
36798;BME280;22748;8.426;99.512;2023-03-11T01:47:57;100962.22;;;28.29;60.17
36798;BME280;22748;8.426;99.512;2023-03-11T01:50:34;100961.41;;;28.35;59.89
36798;BME280;22748;8.426;99.512;2023-03-11T01:53:07;100964.72;;;28.37;59.94
36798;BME280;22748;8.426;99.512;2023-03-11T01:55:38;100968.91;;;28.40;59.87
36798;BME280;22748;8.426;99.512;2023-03-11T01:58:16;100974.06;;;28.41;59.49
36798;BME280;22748;8.426;99.512;2023-03-11T02:00:49;100967.66;;;28.42;59.42
36798;BME280;22748;8.426;99.512;2023-03-11T02:03:21;100974.91;;;28.42;59.44
36798;BME280;22748;8.426;99.512;2023-03-11T02:05:56;100974.31;;;28.46;58.81
36798;BME280;22748;8.426;99.512;2023-03-11T02:08:28;100974.75;;;28.50;59.00
36798;BME280;22748;8.426;99.512;2023-03-11T02:11:04;100976.84;;;28.55;58.99
36798;BME280;22748;8.426;99.512;2023-03-11T02:13:39;100975.25;;;28.60;58.67
36798;BME280;22748;8.426;99.512;2023-03-11T02:16:11;100981.88;;;28.64;58.45
36798;BME280;22748;8.426;99.512;2023-03-11T02:18:51;100978.16;;;28.65;58.12
36798;BME280;22748;8.426;99.512;2023-03-11T02:21:24;100975.91;;;28.69;58.12
36798;BME280;22748;8.426;99.512;2023-03-11T02:24:01;100977.94;;;28.67;58.44
36798;BME280;22748;8.426;99.512;2023-03-11T02:26:38;100980.22;;;28.70;57.61
36798;BME280;22748;8.426;99.512;2023-03-11T02:29:13;100983.56;;;28.72;57.71
36798;BME280;22748;8.426;99.512;2023-03-11T02:31:45;100974.69;;;28.78;57.51
36798;BME280;22748;8.426;99.512;2023-03-11T02:34:17;100969.56;;;28.83;57.87
36798;BME280;22748;8.426;99.512;2023-03-11T02:36:51;100983.66;;;28.92;57.07
36798;BME280;22748;8.426;99.512;2023-03-11T02:39:32;100979.09;;;28.92;57.45
36798;BME280;22748;8.426;99.512;2023-03-11T02:42:06;100983.06;;;28.97;57.11
36798;BME280;22748;8.426;99.512;2023-03-11T02:44:43;100982.44;;;28.95;57.15
36798;BME280;22748;8.426;99.512;2023-03-11T02:47:16;100984.09;;;29.02;56.58
36798;BME280;22748;8.426;99.512;2023-03-11T02:49:46;100984.09;;;29.02;57.24
36798;BME280;22748;8.426;99.512;2023-03-11T02:52:17;100988.66;;;29.08;56.99
36798;BME280;22748;8.426;99.512;2023-03-11T02:54:50;100991.59;;;29.13;56.69
36798;BME280;22748;8.426;99.512;2023-03-11T02:57:20;100992.66;;;29.19;56.48
36798;BME280;22748;8.426;99.512;2023-03-11T02:59:59;100997.63;;;29.22;56.46
36798;BME280;22748;8.426;99.512;2023-03-11T03:02:37;100999.94;;;29.25;56.34
36798;BME280;22748;8.426;99.512;2023-03-11T03:05:08;100997.06;;;29.27;56.56
36798;BME280;22748;8.426;99.512;2023-03-11T03:07:42;100998.69;;;29.28;56.36
36798;BME280;22748;8.426;99.512;2023-03-11T03:10:13;100995.38;;;29.32;55.83
36798;BME280;22748;8.426;99.512;2023-03-11T03:12:44;101002.03;;;29.37;56.18
36798;BME280;22748;8.426;99.512;2023-03-11T03:15:20;101002.66;;;29.39;55.40
36798;BME280;22748;8.426;99.512;2023-03-11T03:17:51;101000.16;;;29.44;55.27
36798;BME280;22748;8.426;99.512;2023-03-11T03:20:34;100994.22;;;29.55;54.76
36798;BME280;22748;8.426;99.512;2023-03-11T03:23:06;100996.69;;;29.63;54.34
36798;BME280;22748;8.426;99.512;2023-03-11T03:25:41;100994.22;;;29.68;53.64
36798;BME280;22748;8.426;99.512;2023-03-11T03:28:57;100997.16;;;29.73;54.02
36798;BME280;22748;8.426;99.512;2023-03-11T03:31:43;101005.44;;;29.79;53.96
36798;BME280;22748;8.426;99.512;2023-03-11T03:34:14;101004.59;;;29.85;53.15
36798;BME280;22748;8.426;99.512;2023-03-11T03:36:44;101002.09;;;29.83;53.71
36798;BME280;22748;8.426;99.512;2023-03-11T03:39:14;100996.13;;;29.88;52.83
36798;BME280;22748;8.426;99.512;2023-03-11T03:41:48;100998.19;;;29.92;53.25
36798;BME280;22748;8.426;99.512;2023-03-11T03:44:27;100990.31;;;29.98;52.69
36798;BME280;22748;8.426;99.512;2023-03-11T03:47:01;100988.03;;;30.01;52.74
36798;BME280;22748;8.426;99.512;2023-03-11T03:49:32;100983.06;;;30.05;52.11
36798;BME280;22748;8.426;99.512;2023-03-11T03:52:06;100978.91;;;30.09;52.41
36798;BME280;22748;8.426;99.512;2023-03-11T03:54:38;100974.56;;;30.14;52.01
36798;BME280;22748;8.426;99.512;2023-03-11T03:57:09;100971.03;;;30.21;52.04
36798;BME280;22748;8.426;99.512;2023-03-11T03:59:40;100969.59;;;30.25;51.46
36798;BME280;22748;8.426;99.512;2023-03-11T04:02:18;100960.03;;;30.29;51.77
36798;BME280;22748;8.426;99.512;2023-03-11T04:04:50;100965.66;;;30.34;51.24
36798;BME280;22748;8.426;99.512;2023-03-11T04:07:22;100957.75;;;30.39;51.12
36798;BME280;22748;8.426;99.512;2023-03-11T04:09:56;100960.63;;;30.44;50.59
36798;BME280;22748;8.426;99.512;2023-03-11T04:12:27;100959.16;;;30.48;50.98
36798;BME280;22748;8.426;99.512;2023-03-11T04:15:10;100956.06;;;30.51;50.74
36798;BME280;22748;8.426;99.512;2023-03-11T04:17:44;100953.13;;;30.53;50.35
36798;BME280;22748;8.426;99.512;2023-03-11T04:20:28;100946.53;;;30.55;50.58
36798;BME280;22748;8.426;99.512;2023-03-11T04:23:03;100937.38;;;30.57;50.17
36798;BME280;22748;8.426;99.512;2023-03-11T04:25:34;100940.47;;;30.67;50.47
36798;BME280;22748;8.426;99.512;2023-03-11T04:28:04;100937.75;;;30.67;50.27
36798;BME280;22748;8.426;99.512;2023-03-11T04:30:34;100928.63;;;30.68;50.93
36798;BME280;22748;8.426;99.512;2023-03-11T04:33:11;100919.88;;;30.72;50.36
36798;BME280;22748;8.426;99.512;2023-03-11T04:35:42;100919.06;;;30.72;49.98
36798;BME280;22748;8.426;99.512;2023-03-11T04:38:14;100914.50;;;30.72;49.98
36798;BME280;22748;8.426;99.512;2023-03-11T04:40:48;100911.19;;;30.70;50.38
36798;BME280;22748;8.426;99.512;2023-03-11T04:43:20;100912.03;;;30.71;50.23
36798;BME280;22748;8.426;99.512;2023-03-11T04:45:51;100905.38;;;30.73;50.82
36798;BME280;22748;8.426;99.512;2023-03-11T04:48:23;100900.81;;;30.74;50.76
36798;BME280;22748;8.426;99.512;2023-03-11T04:50:54;100890.84;;;30.74;50.74
36798;BME280;22748;8.426;99.512;2023-03-11T04:53:24;100881.69;;;30.82;50.38
36798;BME280;22748;8.426;99.512;2023-03-11T04:55:54;100885.00;;;30.91;49.80
36798;BME280;22748;8.426;99.512;2023-03-11T04:58:30;100877.66;;;30.98;49.83
36798;BME280;22748;8.426;99.512;2023-03-11T05:01:01;100870.75;;;31.09;49.67
36798;BME280;22748;8.426;99.512;2023-03-11T05:03:59;100859.88;;;31.22;49.88
36798;BME280;22748;8.426;99.512;2023-03-11T05:06:29;100854.81;;;31.32;49.06
36798;BME280;22748;8.426;99.512;2023-03-11T05:09:01;100847.75;;;31.31;48.55
36798;BME280;22748;8.426;99.512;2023-03-11T05:11:29;100851.50;;;31.30;49.12
36798;BME280;22748;8.426;99.512;2023-03-11T05:14:00;100846.25;;;31.35;48.36
36798;BME280;22748;8.426;99.512;2023-03-11T05:16:32;100833.97;;;31.40;48.23
36798;BME280;22748;8.426;99.512;2023-03-11T05:19:06;100840.81;;;31.49;48.17
36798;BME280;22748;8.426;99.512;2023-03-11T05:21:49;100839.91;;;31.55;47.72
36798;BME280;22748;8.426;99.512;2023-03-11T05:24:33;100831.38;;;31.58;47.78
36798;BME280;22748;8.426;99.512;2023-03-11T05:27:03;100830.56;;;31.58;47.92
36798;BME280;22748;8.426;99.512;2023-03-11T05:29:33;100823.28;;;31.58;47.82
36798;BME280;22748;8.426;99.512;2023-03-11T05:32:03;100829.88;;;31.62;48.12
36798;BME280;22748;8.426;99.512;2023-03-11T05:34:48;100808.88;;;31.64;48.62
36798;BME280;22748;8.426;99.512;2023-03-11T05:37:19;100815.91;;;31.65;48.84
36798;BME280;22748;8.426;99.512;2023-03-11T05:39:51;100806.78;;;31.66;48.56
36798;BME280;22748;8.426;99.512;2023-03-11T05:42:22;100811.72;;;31.69;48.23
36798;BME280;22748;8.426;99.512;2023-03-11T05:44:53;100801.38;;;31.66;48.24
36798;BME280;22748;8.426;99.512;2023-03-11T05:47:25;100805.13;;;31.65;48.14
36798;BME280;22748;8.426;99.512;2023-03-11T05:49:57;100800.31;;;31.67;48.20
36798;BME280;22748;8.426;99.512;2023-03-11T05:52:29;100791.75;;;31.70;48.45
36798;BME280;22748;8.426;99.512;2023-03-11T05:58:08;100788.25;;;31.70;48.68
36798;BME280;22748;8.426;99.512;2023-03-11T06:00:38;100788.84;;;31.72;48.84
36798;BME280;22748;8.426;99.512;2023-03-11T06:03:09;100783.22;;;31.73;49.13
36798;BME280;22748;8.426;99.512;2023-03-11T06:05:47;100784.25;;;31.72;49.53
36798;BME280;22748;8.426;99.512;2023-03-11T06:08:19;100777.22;;;31.71;49.57
36798;BME280;22748;8.426;99.512;2023-03-11T06:11:17;100777.22;;;31.71;49.61
36798;BME280;22748;8.426;99.512;2023-03-11T06:14:02;100766.66;;;31.70;49.54
36798;BME280;22748;8.426;99.512;2023-03-11T06:16:33;100769.56;;;31.68;49.61
36798;BME280;22748;8.426;99.512;2023-03-11T06:19:08;100768.38;;;31.64;49.27
36798;BME280;22748;8.426;99.512;2023-03-11T06:21:54;100763.13;;;31.69;49.03
36798;BME280;22748;8.426;99.512;2023-03-11T06:24:25;100761.56;;;31.80;48.52
36798;BME280;22748;8.426;99.512;2023-03-11T06:26:57;100761.47;;;31.87;48.26
36798;BME280;22748;8.426;99.512;2023-03-11T06:29:27;100755.69;;;31.83;48.79
36798;BME280;22748;8.426;99.512;2023-03-11T06:32:00;100753.22;;;31.82;49.21
36798;BME280;22748;8.426;99.512;2023-03-11T06:34:34;100747.22;;;31.80;49.56
36798;BME280;22748;8.426;99.512;2023-03-11T06:37:07;100747.22;;;31.80;48.58
36798;BME280;22748;8.426;99.512;2023-03-11T06:39:38;100740.09;;;31.85;48.56
36798;BME280;22748;8.426;99.512;2023-03-11T06:42:22;100728.84;;;31.88;48.40
36798;BME280;22748;8.426;99.512;2023-03-11T06:44:54;100727.91;;;31.94;48.50
36798;BME280;22748;8.426;99.512;2023-03-11T06:47:25;100719.59;;;31.96;48.16
36798;BME280;22748;8.426;99.512;2023-03-11T06:49:54;100726.75;;;31.90;47.85
36798;BME280;22748;8.426;99.512;2023-03-11T06:52:40;100714.66;;;31.93;48.82
36798;BME280;22748;8.426;99.512;2023-03-11T06:55:10;100713.59;;;31.94;48.51
36798;BME280;22748;8.426;99.512;2023-03-11T06:57:41;100718.38;;;31.92;48.74
36798;BME280;22748;8.426;99.512;2023-03-11T07:00:12;100713.59;;;31.94;48.22
36798;BME280;22748;8.426;99.512;2023-03-11T07:02:43;100712.13;;;31.98;47.98
36798;BME280;22748;8.426;99.512;2023-03-11T07:05:13;100709.78;;;32.02;47.27
36798;BME280;22748;8.426;99.512;2023-03-11T07:07:52;100705.81;;;32.04;47.16
36798;BME280;22748;8.426;99.512;2023-03-11T07:10:24;100697.22;;;32.07;46.78
36798;BME280;22748;8.426;99.512;2023-03-11T07:13:00;100687.88;;;32.10;46.69
36798;BME280;22748;8.426;99.512;2023-03-11T07:15:36;100691.50;;;32.15;46.99
36798;BME280;22748;8.426;99.512;2023-03-11T07:18:07;100696.09;;;32.15;48.12
36798;BME280;22748;8.426;99.512;2023-03-11T07:20:38;100693.63;;;32.13;48.21
36798;BME280;22748;8.426;99.512;2023-03-11T07:23:17;100691.50;;;32.15;47.94
36798;BME280;22748;8.426;99.512;2023-03-11T07:25:48;100686.81;;;32.23;47.67
36798;BME280;22748;8.426;99.512;2023-03-11T07:28:19;100685.66;;;32.18;47.35
36798;BME280;22748;8.426;99.512;2023-03-11T07:30:50;100687.78;;;32.16;47.46
36798;BME280;22748;8.426;99.512;2023-03-11T07:33:21;100679.31;;;32.25;47.30
36798;BME280;22748;8.426;99.512;2023-03-11T07:35:52;100670.88;;;32.21;46.46
36798;BME280;22748;8.426;99.512;2023-03-11T07:38:26;100667.47;;;32.26;46.28
36798;BME280;22748;8.426;99.512;2023-03-11T07:41:00;100664.28;;;32.29;46.58
36798;BME280;22748;8.426;99.512;2023-03-11T07:43:30;100664.06;;;32.30;46.70
36798;BME280;22748;8.426;99.512;2023-03-11T07:46:05;100656.88;;;32.24;47.63
36798;BME280;22748;8.426;99.512;2023-03-11T07:48:37;100644.19;;;32.25;46.65
36798;BME280;22748;8.426;99.512;2023-03-11T07:51:15;100643.47;;;32.29;46.64
36798;BME280;22748;8.426;99.512;2023-03-11T07:53:50;100641.75;;;32.35;46.89
36798;BME280;22748;8.426;99.512;2023-03-11T07:56:34;100639.16;;;32.28;47.48
36798;BME280;22748;8.426;99.512;2023-03-11T07:59:05;100631.25;;;32.27;48.27
36798;BME280;22748;8.426;99.512;2023-03-11T08:01:47;100638.94;;;32.30;47.74
36798;BME280;22748;8.426;99.512;2023-03-11T08:04:21;100637.25;;;32.29;47.44
36798;BME280;22748;8.426;99.512;2023-03-11T08:06:52;100632.00;;;32.34;47.28
36798;BME280;22748;8.426;99.512;2023-03-11T08:09:24;100632.94;;;32.39;47.15
36798;BME280;22748;8.426;99.512;2023-03-11T08:11:58;100627.91;;;32.43;46.63
36798;BME280;22748;8.426;99.512;2023-03-11T08:14:30;100628.94;;;32.42;47.20
36798;BME280;22748;8.426;99.512;2023-03-11T08:17:06;100627.53;;;32.39;47.63
36798;BME280;22748;8.426;99.512;2023-03-11T08:19:36;100634.72;;;32.34;46.86
36798;BME280;22748;8.426;99.512;2023-03-11T08:22:06;100628.81;;;32.37;47.27
36798;BME280;22748;8.426;99.512;2023-03-11T08:24:51;100624.59;;;32.41;46.95
36798;BME280;22748;8.426;99.512;2023-03-11T08:27:33;100626.38;;;32.47;46.61
36798;BME280;22748;8.426;99.512;2023-03-11T08:30:06;100625.63;;;32.40;47.05
36798;BME280;22748;8.426;99.512;2023-03-11T08:32:37;100613.91;;;32.34;46.81
36798;BME280;22748;8.426;99.512;2023-03-11T08:35:12;100623.53;;;32.42;46.67
36798;BME280;22748;8.426;99.512;2023-03-11T08:37:44;100620.81;;;32.42;46.41
36798;BME280;22748;8.426;99.512;2023-03-11T08:40:19;100616.16;;;32.49;46.13
36798;BME280;22748;8.426;99.512;2023-03-11T08:42:52;100614.84;;;32.52;47.21
36798;BME280;22748;8.426;99.512;2023-03-11T08:45:24;100609.81;;;32.55;47.02
36798;BME280;22748;8.426;99.512;2023-03-11T08:47:54;100611.47;;;32.56;46.62
36798;BME280;22748;8.426;99.512;2023-03-11T08:50:26;100615.22;;;32.55;46.90
36798;BME280;22748;8.426;99.512;2023-03-11T08:52:57;100609.81;;;32.55;46.33
36798;BME280;22748;8.426;99.512;2023-03-11T08:55:35;100605.00;;;32.57;46.45
36798;BME280;22748;8.426;99.512;2023-03-11T08:58:06;100608.28;;;32.59;46.86
36798;BME280;22748;8.426;99.512;2023-03-11T09:00:36;100601.84;;;32.61;47.05
36798;BME280;22748;8.426;99.512;2023-03-11T09:03:10;100601.84;;;32.61;47.13
36798;BME280;22748;8.426;99.512;2023-03-11T09:05:40;100598.66;;;32.64;47.11
36798;BME280;22748;8.426;99.512;2023-03-11T09:08:10;100597.63;;;32.65;47.10
36798;BME280;22748;8.426;99.512;2023-03-11T09:10:43;100599.25;;;32.66;46.95
36798;BME280;22748;8.426;99.512;2023-03-11T09:13:15;100600.91;;;32.67;46.41
36798;BME280;22748;8.426;99.512;2023-03-11T09:15:47;100601.72;;;32.67;46.87
36798;BME280;22748;8.426;99.512;2023-03-11T09:18:18;100593.84;;;32.66;46.69
36798;BME280;22748;8.426;99.512;2023-03-11T09:20:48;100593.38;;;32.57;46.89
36798;BME280;22748;8.426;99.512;2023-03-11T09:23:24;100597.72;;;32.58;47.54
36798;BME280;22748;8.426;99.512;2023-03-11T09:25:57;100605.59;;;32.59;47.70
36798;BME280;22748;8.426;99.512;2023-03-11T09:28:28;100607.84;;;32.63;47.32
36798;BME280;22748;8.426;99.512;2023-03-11T09:30:58;100607.84;;;32.63;47.29
36798;BME280;22748;8.426;99.512;2023-03-11T09:33:30;100605.72;;;32.65;47.03
36798;BME280;22748;8.426;99.512;2023-03-11T09:36:04;100598.19;;;32.67;47.09
36798;BME280;22748;8.426;99.512;2023-03-11T09:38:35;100608.19;;;32.66;46.96
36798;BME280;22748;8.426;99.512;2023-03-11T09:41:12;100600.19;;;32.59;47.42
36798;BME280;22748;8.426;99.512;2023-03-11T09:44:06;100606.88;;;32.57;47.11
36798;BME280;22748;8.426;99.512;2023-03-11T09:46:56;100608.19;;;32.54;47.49
36798;BME280;22748;8.426;99.512;2023-03-11T09:49:39;100609.25;;;32.53;47.29
36798;BME280;22748;8.426;99.512;2023-03-11T09:52:13;100611.13;;;32.53;47.50
36798;BME280;22748;8.426;99.512;2023-03-11T09:54:47;100616.97;;;32.50;47.63
36798;BME280;22748;8.426;99.512;2023-03-11T09:57:21;100620.00;;;32.42;47.79
36798;BME280;22748;8.426;99.512;2023-03-11T09:59:54;100611.47;;;32.45;47.62
36798;BME280;22748;8.426;99.512;2023-03-11T10:05:53;100622.94;;;32.40;47.88
36798;BME280;22748;8.426;99.512;2023-03-11T10:08:33;100620.25;;;32.52;47.56
36798;BME280;22748;8.426;99.512;2023-03-11T10:11:49;100616.88;;;32.56;47.57
36798;BME280;22748;8.426;99.512;2023-03-11T10:14:59;100621.09;;;32.52;48.07
36798;BME280;22748;8.426;99.512;2023-03-11T10:17:44;100630.59;;;32.43;48.19
36798;BME280;22748;8.426;99.512;2023-03-11T10:20:23;100625.78;;;32.45;49.02
36798;BME280;22748;8.426;99.512;2023-03-11T10:23:09;100624.13;;;32.44;48.46
36798;BME280;22748;8.426;99.512;2023-03-11T10:25:55;100635.66;;;32.51;48.26
36798;BME280;22748;8.426;99.512;2023-03-11T10:28:38;100627.69;;;32.56;48.52
36798;BME280;22748;8.426;99.512;2023-03-11T10:31:42;100629.66;;;32.49;48.21
36798;BME280;22748;8.426;99.512;2023-03-11T10:34:19;100624.97;;;32.45;48.45
36798;BME280;22748;8.426;99.512;2023-03-11T10:37:10;100626.81;;;32.44;48.49
36798;BME280;22748;8.426;99.512;2023-03-11T10:39:50;100621.56;;;32.49;48.87
36798;BME280;22748;8.426;99.512;2023-03-11T10:42:23;100630.25;;;32.51;48.71
36798;BME280;22748;8.426;99.512;2023-03-11T10:44:57;100625.66;;;32.52;48.85
36798;BME280;22748;8.426;99.512;2023-03-11T10:47:30;100631.31;;;32.50;48.66
36798;BME280;22748;8.426;99.512;2023-03-11T10:50:00;100627.78;;;32.50;48.51
36798;BME280;22748;8.426;99.512;2023-03-11T10:52:32;100624.84;;;32.51;48.43
36798;BME280;22748;8.426;99.512;2023-03-11T10:55:17;100624.63;;;32.53;48.47
36798;BME280;22748;8.426;99.512;2023-03-11T10:57:51;100632.50;;;32.54;48.86
36798;BME280;22748;8.426;99.512;2023-03-11T11:00:33;100627.69;;;32.56;48.86
36798;BME280;22748;8.426;99.512;2023-03-11T11:03:15;100636.84;;;32.55;48.77
36798;BME280;22748;8.426;99.512;2023-03-11T11:06:00;100625.81;;;32.57;48.71
36798;BME280;22748;8.426;99.512;2023-03-11T11:08:33;100638.50;;;32.56;48.52
36798;BME280;22748;8.426;99.512;2023-03-11T11:11:10;100635.81;;;32.56;48.59
36798;BME280;22748;8.426;99.512;2023-03-11T11:13:57;100648.50;;;32.56;48.77
36798;BME280;22748;8.426;99.512;2023-03-11T11:16:28;100644.97;;;32.55;48.63
36798;BME280;22748;8.426;99.512;2023-03-11T11:19:03;100645.22;;;32.54;48.46
36798;BME280;22748;8.426;99.512;2023-03-11T11:21:35;100652.81;;;32.45;48.25
36798;BME280;22748;8.426;99.512;2023-03-11T11:24:16;100659.25;;;32.44;48.08
36798;BME280;22748;8.426;99.512;2023-03-11T11:27:12;100662.88;;;32.26;48.19
36798;BME280;22748;8.426;99.512;2023-03-11T11:29:43;100668.06;;;32.28;48.23
36798;BME280;22748;8.426;99.512;2023-03-11T11:32:20;100665.94;;;32.30;48.15
36798;BME280;22748;8.426;99.512;2023-03-11T11:35:13;100669.69;;;32.29;48.27
36798;BME280;22748;8.426;99.512;2023-03-11T11:37:48;100678.88;;;32.28;48.93
36798;BME280;22748;8.426;99.512;2023-03-11T11:40:29;100685.31;;;32.27;48.84
36798;BME280;22748;8.426;99.512;2023-03-11T11:43:00;100684.28;;;32.28;48.63
36798;BME280;22748;8.426;99.512;2023-03-11T11:45:36;100683.69;;;32.26;49.39
36798;BME280;22748;8.426;99.512;2023-03-11T11:48:16;100680.25;;;32.18;49.22
36798;BME280;22748;8.426;99.512;2023-03-11T11:50:51;100689.13;;;32.07;49.18
36798;BME280;22748;8.426;99.512;2023-03-11T11:53:31;100689.59;;;32.04;49.31
36798;BME280;22748;8.426;99.512;2023-03-11T11:56:04;100699.59;;;32.04;48.87
36798;BME280;22748;8.426;99.512;2023-03-11T11:58:34;100697.69;;;32.04;49.07
36798;BME280;22748;8.426;99.512;2023-03-11T12:01:36;100698.16;;;32.01;49.08
36798;BME280;22748;8.426;99.512;2023-03-11T12:04:29;100695.47;;;32.01;49.57
36798;BME280;22748;8.426;99.512;2023-03-11T12:10:09;100714.38;;;32.01;49.35
36798;BME280;22748;8.426;99.512;2023-03-11T12:12:49;100715.41;;;32.00;49.82
36798;BME280;22748;8.426;99.512;2023-03-11T12:15:26;100724.59;;;31.99;49.79
36798;BME280;22748;8.426;99.512;2023-03-11T12:18:01;100722.91;;;31.98;50.11
36798;BME280;22748;8.426;99.512;2023-03-11T12:20:38;100732.50;;;31.94;50.02
36798;BME280;22748;8.426;99.512;2023-03-11T12:23:29;100733.31;;;31.94;50.52
36798;BME280;22748;8.426;99.512;2023-03-11T12:26:11;100740.38;;;31.95;50.07
36798;BME280;22748;8.426;99.512;2023-03-11T12:28:47;100746.81;;;31.94;50.72
36798;BME280;22748;8.426;99.512;2023-03-11T12:31:20;100756.59;;;31.95;50.54
36798;BME280;22748;8.426;99.512;2023-03-11T12:33:58;100759.50;;;31.94;50.53
36798;BME280;22748;8.426;99.512;2023-03-11T12:36:31;100763.88;;;31.95;50.75
36798;BME280;22748;8.426;99.512;2023-03-11T12:39:05;100766.56;;;31.95;50.47
36798;BME280;22748;8.426;99.512;2023-03-11T12:41:37;100779.47;;;31.93;50.45
36798;BME280;22748;8.426;99.512;2023-03-11T12:44:26;100782.84;;;31.88;50.82
36798;BME280;22748;8.426;99.512;2023-03-11T12:47:01;100791.19;;;31.87;50.56
36798;BME280;22748;8.426;99.512;2023-03-11T12:49:34;100790.56;;;31.85;50.75
36798;BME280;22748;8.426;99.512;2023-03-11T12:52:21;100790.56;;;31.85;51.01
36798;BME280;22748;8.426;99.512;2023-03-11T13:04:45;100812.41;;;31.83;50.90
36798;BME280;22748;8.426;99.512;2023-03-11T13:07:39;100802.06;;;31.80;51.37
36798;BME280;22748;8.426;99.512;2023-03-11T13:10:13;100813.69;;;31.81;51.27
36798;BME280;22748;8.426;99.512;2023-03-11T13:12:46;100815.34;;;31.82;51.63
36798;BME280;22748;8.426;99.512;2023-03-11T13:15:29;100820.16;;;31.80;51.55
36798;BME280;22748;8.426;99.512;2023-03-11T13:18:13;100817.44;;;31.80;51.80
36798;BME280;22748;8.426;99.512;2023-03-11T13:20:51;100821.63;;;31.75;51.81
36798;BME280;22748;8.426;99.512;2023-03-11T13:23:39;100821.63;;;31.75;51.63
36798;BME280;22748;8.426;99.512;2023-03-11T13:26:29;100829.13;;;31.73;51.53
36798;BME280;22748;8.426;99.512;2023-03-11T13:32:32;100857.16;;;31.72;51.89
36798;BME280;22748;8.426;99.512;2023-03-11T13:35:15;100854.94;;;31.69;51.84
36798;BME280;22748;8.426;99.512;2023-03-11T13:38:19;100864.53;;;31.65;52.04
36798;BME280;22748;8.426;99.512;2023-03-11T13:40:53;100859.56;;;31.62;51.67
36798;BME280;22748;8.426;99.512;2023-03-11T13:43:26;100862.09;;;31.57;51.92
36798;BME280;22748;8.426;99.512;2023-03-11T13:45:59;100874.97;;;31.55;51.62
36798;BME280;22748;8.426;99.512;2023-03-11T13:48:32;100870.66;;;31.54;51.86
36798;BME280;22748;8.426;99.512;2023-03-11T13:51:13;100878.75;;;31.54;51.31
36798;BME280;22748;8.426;99.512;2023-03-11T13:53:49;100881.22;;;31.55;51.39
36798;BME280;22748;8.426;99.512;2023-03-11T13:56:25;100883.31;;;31.53;51.23